createdAt,value
2019-02-22T00:00:39.129Z,97700.04
2019-02-22T00:01:52.443Z,97701.41
2019-02-22T00:02:59.757Z,97704.77
2019-02-22T00:04:07.166Z,97701.03
2019-02-22T00:05:14.498Z,97703.62
2019-02-22T00:06:21.842Z,97705.75
2019-02-22T00:07:33.264Z,97702.33
2019-02-22T00:08:40.594Z,97701.88
2019-02-22T00:09:49.750Z,97695.86
2019-02-22T00:10:56.925Z,97704.92
2019-02-22T00:12:04.265Z,97704.00
2019-02-22T00:13:11.582Z,97701.88
2019-02-22T00:14:18.901Z,97695.86
2019-02-22T00:15:26.242Z,97704.00
2019-02-22T00:16:33.604Z,97698.83
2019-02-22T00:17:40.941Z,97701.42
2019-02-22T00:18:48.242Z,97698.83
2019-02-22T00:19:55.585Z,97700.13
2019-02-22T00:21:05.982Z,97697.54
2019-02-22T00:22:13.304Z,97691.52
2019-02-22T00:23:20.621Z,97691.14
2019-02-22T00:24:27.967Z,97694.64
2019-02-22T00:25:35.302Z,97695.09
2019-02-22T00:26:42.628Z,97701.95
2019-02-22T00:27:49.999Z,97702.41
2019-02-22T00:28:57.318Z,97699.89
2019-02-22T00:30:04.971Z,97700.72
2019-02-22T00:31:12.410Z,97698.59
2019-02-22T00:32:19.770Z,97696.46
2019-02-22T00:33:27.150Z,97695.23
2019-02-22T00:34:34.596Z,97697.83
2019-02-22T00:35:42.006Z,97691.05
2019-02-22T00:36:49.380Z,97693.18
2019-02-22T00:37:56.758Z,97695.77
2019-02-22T00:39:05.403Z,97690.20
2019-02-22T00:40:13.879Z,97693.73
2019-02-22T00:41:21.251Z,97697.23
2019-02-22T00:42:28.585Z,97699.44
2019-02-22T00:43:35.926Z,97696.02
2019-02-22T00:44:43.266Z,97686.64
2019-02-22T00:45:50.602Z,97684.06
2019-02-22T00:46:57.919Z,97677.59
2019-02-22T00:48:06.332Z,97680.63
2019-02-22T00:49:13.659Z,97683.67
2019-02-22T00:50:21.019Z,97678.12
2019-02-22T00:51:31.346Z,97679.87
2019-02-22T00:52:38.655Z,97685.88
2019-02-22T00:53:45.982Z,97677.35
2019-02-22T00:54:53.314Z,97677.42
2019-02-22T00:56:00.638Z,97681.76
2019-02-22T00:57:07.943Z,97677.52
2019-02-22T00:58:15.298Z,97681.76
2019-02-22T00:59:22.629Z,97676.69
2019-02-22T01:00:29.967Z,97678.82
2019-02-22T01:01:37.300Z,97677.98
2019-02-22T01:02:47.941Z,97685.74
2019-02-22T01:03:55.262Z,97685.74
2019-02-22T01:05:02.576Z,97684.91
2019-02-22T01:06:10.004Z,97682.77
2019-02-22T01:07:17.322Z,97686.20
2019-02-22T01:08:24.627Z,97684.91
2019-02-22T01:09:31.946Z,97684.00
2019-02-22T01:10:39.367Z,97684.34
2019-02-22T01:11:46.671Z,97685.29
2019-02-22T01:12:53.991Z,97685.19
2019-02-22T01:14:01.294Z,97687.39
2019-02-22T01:15:08.642Z,97687.77
2019-02-22T01:16:15.988Z,97681.23
2019-02-22T01:17:23.361Z,97694.63
2019-02-22T01:18:30.691Z,97690.74
2019-02-22T01:19:38.022Z,97695.84
2019-02-22T01:20:54.026Z,97694.09
2019-02-22T01:21:54.468Z,97695.39
2019-02-22T01:23:01.786Z,97689.00
2019-02-22T01:24:09.125Z,97696.30
2019-02-22T01:25:16.613Z,97692.11
2019-02-22T01:26:23.929Z,97696.76
2019-02-22T01:27:31.256Z,97694.63
2019-02-22T01:28:38.587Z,97699.34
2019-02-22T01:29:45.901Z,97696.30
2019-02-22T01:30:54.449Z,97701.93
2019-02-22T01:32:01.825Z,97696.76
2019-02-22T01:33:11.171Z,97704.90
2019-02-22T01:34:18.505Z,97702.77
2019-02-22T01:35:25.854Z,97707.03
2019-02-22T01:36:33.163Z,97702.24
2019-02-22T01:37:40.542Z,97705.22
2019-02-22T01:38:47.862Z,97709.93
2019-02-22T01:39:55.209Z,97710.70
2019-02-22T01:41:02.531Z,97710.70
2019-02-22T01:42:09.861Z,97710.62
2019-02-22T01:43:17.199Z,97712.30
2019-02-22T01:44:24.712Z,97713.14
2019-02-22T01:45:32.040Z,97706.29
2019-02-22T01:46:40.458Z,97711.39
2019-02-22T01:47:47.763Z,97711.75
2019-02-22T01:48:55.143Z,97709.16
2019-02-22T01:50:02.456Z,97713.42
2019-02-22T01:51:10.884Z,97709.47
2019-02-22T01:52:18.206Z,97716.70
2019-02-22T01:53:25.527Z,97715.80
2019-02-22T01:54:32.875Z,97716.64
2019-02-22T01:55:40.221Z,97717.02
2019-02-22T01:56:47.561Z,97716.56
2019-02-22T01:57:58.497Z,97722.13
2019-02-22T01:59:05.828Z,97720.38
2019-02-22T02:00:13.694Z,97717.78
2019-02-22T02:01:21.314Z,97716.11
2019-02-22T02:02:28.670Z,97720.38
2019-02-22T02:03:37.849Z,97715.13
2019-02-22T02:04:45.211Z,97722.44
2019-02-22T02:05:53.628Z,97723.27
2019-02-22T02:07:00.988Z,97724.64
2019-02-22T02:08:08.323Z,97720.30
2019-02-22T02:09:15.643Z,97720.30
2019-02-22T02:10:23.090Z,97715.51
2019-02-22T02:11:30.409Z,97717.26
2019-02-22T02:12:37.741Z,97715.02
2019-02-22T02:13:45.085Z,97718.45
2019-02-22T02:14:52.415Z,97718.38
2019-02-22T02:15:59.792Z,97718.38
2019-02-22T02:17:07.121Z,97719.67
2019-02-22T02:18:14.542Z,97716.17
2019-02-22T02:19:22.847Z,97717.77
2019-02-22T02:20:30.789Z,97723.41
2019-02-22T02:21:39.166Z,97721.27
2019-02-22T02:22:46.488Z,97718.69
2019-02-22T02:23:53.791Z,97722.11
2019-02-22T02:25:01.154Z,97723.41
2019-02-22T02:26:08.538Z,97733.30
2019-02-22T02:27:15.858Z,97722.95
2019-02-22T02:28:23.212Z,97720.75
2019-02-22T02:29:30.549Z,97725.09
2019-02-22T02:30:37.880Z,97723.34
2019-02-22T02:31:45.196Z,97728.52
2019-02-22T02:32:52.526Z,97725.92
2019-02-22T02:33:59.884Z,97722.87
2019-02-22T02:35:07.861Z,97725.02
2019-02-22T02:36:15.225Z,97729.28
2019-02-22T02:37:22.536Z,97728.89
2019-02-22T02:38:29.893Z,97730.12
2019-02-22T02:39:37.211Z,97733.55
2019-02-22T02:40:44.528Z,97732.25
2019-02-22T02:41:51.829Z,97724.94
2019-02-22T02:42:59.186Z,97731.72
2019-02-22T02:44:06.551Z,97733.86
2019-02-22T02:45:13.879Z,97733.02
2019-02-22T02:46:21.197Z,97735.61
2019-02-22T02:47:28.586Z,97728.75
2019-02-22T02:48:35.932Z,97737.42
2019-02-22T02:49:43.277Z,97742.61
2019-02-22T02:50:50.606Z,97741.84
2019-02-22T02:51:57.968Z,97743.20
2019-02-22T02:53:05.677Z,97741.91
2019-02-22T02:54:13.038Z,97748.84
2019-02-22T02:55:32.356Z,97747.61
2019-02-22T02:56:39.690Z,97748.07
2019-02-22T02:57:48.556Z,97746.56
2019-02-22T02:58:55.860Z,97750.45
2019-02-22T03:00:03.213Z,97744.13
2019-02-22T03:01:10.806Z,97748.00
2019-02-22T03:02:24.506Z,97751.05
2019-02-22T03:03:31.844Z,97757.13
2019-02-22T03:04:39.183Z,97761.54
2019-02-22T03:06:10.087Z,97758.57
2019-02-22T03:07:34.923Z,97766.33
2019-02-22T03:08:42.256Z,97758.95
2019-02-22T03:09:49.642Z,97760.14
2019-02-22T03:10:56.934Z,97761.96
2019-02-22T03:12:04.269Z,97759.48
2019-02-22T03:13:14.638Z,97760.31
2019-02-22T03:14:21.987Z,97757.24
2019-02-22T03:15:29.331Z,97759.48
2019-02-22T03:16:36.645Z,97760.67
2019-02-22T03:17:44.004Z,97758.08
2019-02-22T03:18:52.305Z,97762.80
2019-02-22T03:19:59.953Z,97764.09
2019-02-22T03:21:07.280Z,97772.70
2019-02-22T03:22:14.588Z,97767.59
2019-02-22T03:23:21.921Z,97764.55
2019-02-22T03:24:29.269Z,97772.70
2019-02-22T03:25:36.620Z,97768.88
2019-02-22T03:26:43.958Z,97770.56
2019-02-22T03:27:51.273Z,97773.25
2019-02-22T03:28:58.595Z,97772.48
2019-02-22T03:30:06.466Z,97769.05
2019-02-22T03:31:13.805Z,97771.26
2019-02-22T03:32:21.104Z,97765.77
2019-02-22T03:33:28.440Z,97770.48
2019-02-22T03:34:35.766Z,97771.84
2019-02-22T03:35:43.112Z,97774.89
2019-02-22T03:36:50.444Z,97772.30
2019-02-22T03:37:57.809Z,97777.93
2019-02-22T03:39:07.081Z,97780.52
2019-02-22T03:40:15.056Z,97783.56
2019-02-22T03:41:32.447Z,97778.45
2019-02-22T03:42:31.371Z,97777.23
2019-02-22T03:43:38.717Z,97780.75
2019-02-22T03:44:46.030Z,97786.38
2019-02-22T03:45:53.349Z,97786.84
2019-02-22T03:47:00.680Z,97785.61
2019-02-22T03:48:08.036Z,97784.77
2019-02-22T03:49:15.331Z,97787.42
2019-02-22T03:50:24.694Z,97791.69
2019-02-22T03:51:32.018Z,97793.44
2019-02-22T03:52:46.510Z,97792.14
2019-02-22T03:53:59.147Z,97798.55
2019-02-22T03:55:07.250Z,97793.13
2019-02-22T03:56:14.671Z,97794.03
2019-02-22T03:57:22.001Z,97792.34
2019-02-22T03:58:29.333Z,97793.19
2019-02-22T03:59:37.749Z,97791.89
2019-02-22T04:00:45.074Z,97790.60
2019-02-22T04:01:52.746Z,97793.58
2019-02-22T04:03:00.096Z,97800.81
2019-02-22T04:04:07.402Z,97798.61
2019-02-22T04:05:14.740Z,97796.02
2019-02-22T04:06:22.056Z,97798.16
2019-02-22T04:07:29.388Z,97797.25
2019-02-22T04:08:36.716Z,97802.42
2019-02-22T04:09:45.132Z,97802.42
2019-02-22T04:10:52.410Z,97802.88
2019-02-22T04:11:59.746Z,97805.01
2019-02-22T04:13:07.117Z,97803.27
2019-02-22T04:14:14.497Z,97807.59
2019-02-22T04:15:21.883Z,97803.27
2019-02-22T04:16:29.189Z,97804.56
2019-02-22T04:17:37.528Z,97800.67
2019-02-22T04:18:44.823Z,97793.76
2019-02-22T04:19:52.153Z,97795.50
2019-02-22T04:20:59.540Z,97795.50
2019-02-22T04:22:06.902Z,97801.91
2019-02-22T04:23:14.220Z,97794.50
2019-02-22T04:24:21.553Z,97800.96
2019-02-22T04:25:28.902Z,97795.79
2019-02-22T04:26:36.196Z,97796.73
2019-02-22T04:27:44.576Z,97793.20
2019-02-22T04:28:54.155Z,97792.39
2019-02-22T04:30:01.489Z,97791.45
2019-02-22T04:31:09.980Z,97795.34
2019-02-22T04:32:17.313Z,97791.91
2019-02-22T04:33:24.634Z,97792.39
2019-02-22T04:34:31.954Z,97794.14
2019-02-22T04:35:39.347Z,97798.37
2019-02-22T04:36:46.689Z,97797.56
2019-02-22T04:37:54.033Z,97802.25
2019-02-22T04:39:01.350Z,97798.86
2019-02-22T04:40:10.286Z,97803.09
2019-02-22T04:41:17.663Z,97799.67
2019-02-22T04:42:24.991Z,97800.61
2019-02-22T04:43:32.307Z,97797.92
2019-02-22T04:44:39.668Z,97799.60
2019-02-22T04:45:46.965Z,97799.15
2019-02-22T04:46:54.297Z,97805.61
2019-02-22T04:48:01.628Z,97804.32
2019-02-22T04:49:08.986Z,97803.87
2019-02-22T04:50:16.302Z,97807.81
2019-02-22T04:51:23.637Z,97806.07
2019-02-22T04:52:30.951Z,97802.74
2019-02-22T04:53:38.290Z,97808.72
2019-02-22T04:54:45.613Z,97814.28
2019-02-22T04:55:52.985Z,97807.91
2019-02-22T04:57:00.300Z,97810.57
2019-02-22T04:58:07.620Z,97809.27
2019-02-22T04:59:14.964Z,97808.89
2019-02-22T05:00:22.277Z,97810.64
2019-02-22T05:01:29.595Z,97806.30
2019-02-22T05:02:36.912Z,97810.57
2019-02-22T05:03:44.257Z,97805.84
2019-02-22T05:04:51.602Z,97810.57
2019-02-22T05:05:58.921Z,97813.16
2019-02-22T05:07:06.252Z,97807.14
2019-02-22T05:08:13.560Z,97809.27
2019-02-22T05:09:20.869Z,97814.91
2019-02-22T05:10:28.178Z,97814.97
2019-02-22T05:11:35.496Z,97813.67
2019-02-22T05:12:42.854Z,97820.98
2019-02-22T05:13:50.187Z,97820.53
2019-02-22T05:14:57.515Z,97823.11
2019-02-22T05:16:04.834Z,97817.48
2019-02-22T05:17:12.168Z,97820.08
2019-02-22T05:18:19.497Z,97817.88
2019-02-22T05:19:26.889Z,97823.05
2019-02-22T05:20:34.153Z,97826.47
2019-02-22T05:21:41.510Z,97825.25
2019-02-22T05:22:48.830Z,97830.88
2019-02-22T05:23:56.161Z,97830.88
2019-02-22T05:25:03.491Z,97833.08
2019-02-22T05:26:10.884Z,97837.80
2019-02-22T05:27:18.197Z,97836.57
2019-02-22T05:28:28.532Z,97836.57
2019-02-22T05:29:35.865Z,97835.27
2019-02-22T05:30:43.334Z,97834.50
2019-02-22T05:31:50.660Z,97830.69
2019-02-22T05:32:57.999Z,97828.56
2019-02-22T05:34:05.296Z,97836.31
2019-02-22T05:35:12.624Z,97836.77
2019-02-22T05:36:19.974Z,97834.63
2019-02-22T05:37:27.326Z,97844.14
2019-02-22T05:38:34.633Z,97842.39
2019-02-22T05:39:41.963Z,97844.98
2019-02-22T05:40:49.267Z,97844.08
2019-02-22T05:41:56.595Z,97841.10
2019-02-22T05:43:03.940Z,97844.91
2019-02-22T05:44:11.274Z,97841.42
2019-02-22T05:45:18.590Z,97844.39
2019-02-22T05:46:25.905Z,97849.95
2019-02-22T05:47:33.218Z,97848.59
2019-02-22T05:48:40.622Z,97847.30
2019-02-22T05:49:47.971Z,97851.56
2019-02-22T05:50:55.301Z,97844.65
2019-02-22T05:52:02.626Z,97848.91
2019-02-22T05:53:09.950Z,97848.08
2019-02-22T05:54:17.280Z,97860.10
2019-02-22T05:55:24.625Z,97851.95
2019-02-22T05:56:31.913Z,97857.20
2019-02-22T05:57:39.245Z,97865.80
2019-02-22T05:58:46.592Z,97862.82
2019-02-22T05:59:53.935Z,97865.80
2019-02-22T06:01:01.275Z,97865.34
2019-02-22T06:02:08.635Z,97868.77
2019-02-22T06:03:17.034Z,97868.31
2019-02-22T06:04:24.361Z,97873.03
2019-02-22T06:05:31.688Z,97874.33
2019-02-22T06:06:39.003Z,97878.66
2019-02-22T06:07:46.328Z,97873.48
2019-02-22T06:08:53.672Z,97870.52
2019-02-22T06:10:00.992Z,97872.78
2019-02-22T06:11:08.384Z,97874.91
2019-02-22T06:12:18.409Z,97874.59
2019-02-22T06:13:24.771Z,97880.28
2019-02-22T06:14:32.133Z,97875.63
2019-02-22T06:15:39.448Z,97875.23
2019-02-22T06:16:46.787Z,97879.12
2019-02-22T06:17:54.124Z,97889.92
2019-02-22T06:19:01.469Z,97886.04
2019-02-22T06:20:09.346Z,97890.76
2019-02-22T06:21:16.700Z,97895.93
2019-02-22T06:22:29.459Z,97891.59
2019-02-22T06:23:33.062Z,97895.87
2019-02-22T06:24:40.393Z,97895.41
2019-02-22T06:25:47.715Z,97893.67
2019-02-22T06:26:55.039Z,97897.16
2019-02-22T06:28:02.357Z,97893.28
2019-02-22T06:29:09.670Z,97898.97
2019-02-22T06:30:17.003Z,97896.03
2019-02-22T06:31:24.320Z,97901.66
2019-02-22T06:32:31.631Z,97902.95
2019-02-22T06:33:38.966Z,97901.20
2019-02-22T06:34:46.309Z,97902.49
2019-02-22T06:35:53.637Z,97896.48
2019-02-22T06:37:02.268Z,97899.06
2019-02-22T06:38:09.848Z,97901.20
2019-02-22T06:39:17.171Z,97898.61
2019-02-22T06:40:24.524Z,97907.21
2019-02-22T06:41:31.836Z,97905.92
2019-02-22T06:42:45.873Z,97911.90
2019-02-22T06:43:48.181Z,97904.98
2019-02-22T06:44:55.535Z,97911.45
2019-02-22T06:46:02.858Z,97909.70
2019-02-22T06:47:10.187Z,97907.12
2019-02-22T06:48:17.527Z,97903.69
2019-02-22T06:49:24.896Z,97911.90
2019-02-22T06:50:33.972Z,97915.33
2019-02-22T06:51:41.299Z,97908.95
2019-02-22T06:52:48.625Z,97907.73
2019-02-22T06:53:59.261Z,97918.08
2019-02-22T06:55:06.934Z,97917.30
2019-02-22T06:56:14.264Z,97915.23
2019-02-22T06:57:21.593Z,97915.68
2019-02-22T06:58:28.930Z,97923.38
2019-02-22T06:59:36.347Z,97921.24
2019-02-22T07:00:43.746Z,97920.73
2019-02-22T07:01:51.082Z,97921.56
2019-02-22T07:02:58.415Z,97922.80
2019-02-22T07:04:05.746Z,97923.54
2019-02-22T07:05:13.091Z,97923.09
2019-02-22T07:06:20.435Z,97920.50
2019-02-22T07:07:27.742Z,97929.09
2019-02-22T07:08:35.040Z,97914.88
2019-02-22T07:09:42.357Z,97918.23
2019-02-22T07:11:07.392Z,97925.09
2019-02-22T07:12:18.897Z,97923.73
2019-02-22T07:13:26.207Z,97930.84
2019-02-22T07:14:33.564Z,97933.98
2019-02-22T07:15:40.916Z,97936.95
2019-02-22T07:16:48.261Z,97939.45
2019-02-22T07:17:55.581Z,97936.34
2019-02-22T07:19:02.890Z,97941.45
2019-02-22T07:20:11.695Z,97939.64
2019-02-22T07:21:19.034Z,97938.67
2019-02-22T07:22:26.356Z,97942.10
2019-02-22T07:23:33.698Z,97938.16
2019-02-22T07:24:41.155Z,97937.70
2019-02-22T07:25:48.495Z,97939.35
2019-02-22T07:26:55.851Z,97943.63
2019-02-22T07:28:03.203Z,97940.58
2019-02-22T07:29:10.528Z,97942.72
2019-02-22T07:30:17.852Z,97951.31
2019-02-22T07:31:25.243Z,97953.06
2019-02-22T07:32:33.094Z,97963.80
2019-02-22T07:33:40.874Z,97958.23
2019-02-22T07:34:48.191Z,97961.66
2019-02-22T07:35:55.532Z,97963.80
2019-02-22T07:37:04.989Z,97964.64
2019-02-22T07:38:12.357Z,97961.21
2019-02-22T07:39:27.356Z,97972.40
2019-02-22T07:40:28.720Z,97972.34
2019-02-22T07:41:36.073Z,97971.88
2019-02-22T07:42:43.470Z,97969.69
2019-02-22T07:43:50.838Z,97973.11
2019-02-22T07:44:58.147Z,97976.48
2019-02-22T07:46:05.477Z,97973.89
2019-02-22T07:47:13.315Z,97973.37
2019-02-22T07:48:20.646Z,97978.09
2019-02-22T07:49:28.947Z,97976.70
2019-02-22T07:50:36.279Z,97980.97
2019-02-22T07:51:43.610Z,97979.23
2019-02-22T07:52:51.017Z,97980.07
2019-02-22T07:53:58.399Z,97983.50
2019-02-22T07:55:05.917Z,97983.50
2019-02-22T07:56:13.311Z,97981.30
2019-02-22T07:57:20.633Z,97983.82
2019-02-22T07:58:27.957Z,97988.55
2019-02-22T07:59:35.314Z,97986.34
2019-02-22T08:00:42.648Z,97986.34
2019-02-22T08:01:49.953Z,97990.16
2019-02-22T08:02:57.269Z,97991.84
2019-02-22T08:04:04.623Z,97990.09
2019-02-22T08:05:11.962Z,97993.07
2019-02-22T08:06:19.278Z,98005.11
2019-02-22T08:07:26.618Z,98001.91
2019-02-22T08:08:35.213Z,98007.02
2019-02-22T08:09:45.722Z,98006.50
2019-02-22T08:10:53.051Z,98006.44
2019-02-22T08:12:00.399Z,98005.98
2019-02-22T08:13:19.109Z,98012.39
2019-02-22T08:14:18.034Z,98008.05
2019-02-22T08:15:25.396Z,98019.15
2019-02-22T08:16:32.885Z,98019.98
2019-02-22T08:17:40.248Z,98025.49
2019-02-22T08:19:01.573Z,98026.33
2019-02-22T08:20:04.765Z,98021.55
2019-02-22T08:21:12.071Z,98024.58
2019-02-22T08:22:20.725Z,98017.66
2019-02-22T08:23:28.201Z,98024.52
2019-02-22T08:24:35.542Z,98030.54
2019-02-22T08:25:42.877Z,98031.77
2019-02-22T08:26:50.229Z,98032.16
2019-02-22T08:27:57.566Z,98028.20
2019-02-22T08:29:04.956Z,98028.14
2019-02-22T08:30:13.680Z,98031.47
2019-02-22T08:31:21.043Z,98031.41
2019-02-22T08:32:28.375Z,98037.36
2019-02-22T08:33:35.729Z,98033.02
2019-02-22T08:34:45.758Z,98029.14
2019-02-22T08:35:52.327Z,98034.70
2019-02-22T08:36:59.688Z,98032.96
2019-02-22T08:38:07.009Z,98037.69
2019-02-22T08:39:14.352Z,98031.66
2019-02-22T08:40:21.671Z,98032.92
2019-02-22T08:41:29.031Z,98029.92
2019-02-22T08:42:36.375Z,98027.78
2019-02-22T08:43:43.717Z,98025.55
2019-02-22T08:44:51.035Z,98025.09
2019-02-22T08:45:58.342Z,98025.94
2019-02-22T08:47:05.701Z,98027.16
2019-02-22T08:48:13.034Z,98027.52
2019-02-22T08:49:20.378Z,98039.95
2019-02-22T08:50:27.695Z,98029.97
2019-02-22T08:51:35.051Z,98035.47
2019-02-22T08:52:42.355Z,98038.45
2019-02-22T08:53:49.802Z,98036.64
2019-02-22T08:54:57.197Z,98036.19
2019-02-22T08:56:04.527Z,98040.00
2019-02-22T08:57:11.945Z,98034.37
2019-02-22T08:58:20.346Z,98034.75
2019-02-22T08:59:27.899Z,98038.54
2019-02-22T09:00:35.514Z,98035.50
2019-02-22T09:01:43.038Z,98036.72
2019-02-22T09:02:51.851Z,98037.95
2019-02-22T09:03:59.235Z,98039.18
2019-02-22T09:05:06.970Z,98040.02
2019-02-22T09:06:14.882Z,98035.69
2019-02-22T09:07:22.315Z,98042.55
2019-02-22T09:08:29.646Z,98038.59
2019-02-22T09:09:36.991Z,98042.02
2019-02-22T09:10:44.364Z,98047.59
2019-02-22T09:11:51.748Z,98047.98
2019-02-22T09:12:59.048Z,98041.86
2019-02-22T09:14:06.364Z,98046.52
2019-02-22T09:15:13.680Z,98054.67
2019-02-22T09:16:21.000Z,98057.13
2019-02-22T09:17:28.317Z,98058.30
2019-02-22T09:18:38.875Z,98055.63
2019-02-22T09:19:46.210Z,98059.91
2019-02-22T09:20:53.535Z,98062.85
2019-02-22T09:22:00.847Z,98070.17
2019-02-22T09:23:08.221Z,98066.28
2019-02-22T09:24:15.525Z,98061.88
2019-02-22T09:25:22.853Z,98067.44
2019-02-22T09:26:30.206Z,98068.67
2019-02-22T09:27:37.520Z,98069.83
2019-02-22T09:28:44.895Z,98076.24
2019-02-22T09:29:58.939Z,98071.91
2019-02-22T09:31:01.262Z,98072.74
2019-02-22T09:32:08.596Z,98078.31
2019-02-22T09:33:15.920Z,98076.17
2019-02-22T09:34:23.259Z,98079.12
2019-02-22T09:35:30.574Z,98082.48
2019-02-22T09:36:37.918Z,98078.14
2019-02-22T09:37:45.251Z,98082.03
2019-02-22T09:38:52.583Z,98084.17
2019-02-22T09:39:59.980Z,98091.48
2019-02-22T09:41:07.325Z,98084.55
2019-02-22T09:42:14.628Z,98085.39
2019-02-22T09:43:21.949Z,98089.22
2019-02-22T09:44:29.280Z,98090.45
2019-02-22T09:45:36.628Z,98089.47
2019-02-22T09:46:43.955Z,98088.55
2019-02-22T09:47:51.291Z,98090.70
2019-02-22T09:48:58.576Z,98093.56
2019-02-22T09:50:07.626Z,98094.41
2019-02-22T09:51:14.946Z,98094.34
2019-02-22T09:52:23.342Z,98093.50
2019-02-22T09:53:30.653Z,98096.94
2019-02-22T09:54:37.989Z,98100.83
2019-02-22T09:55:45.290Z,98102.13
2019-02-22T09:56:52.606Z,98100.75
2019-02-22T09:57:59.950Z,98108.92
2019-02-22T09:59:07.310Z,98107.17
2019-02-22T10:00:14.925Z,98103.28
2019-02-22T10:01:22.323Z,98103.66
2019-02-22T10:02:29.648Z,98110.47
2019-02-22T10:03:37.000Z,98106.96
2019-02-22T10:04:54.459Z,98106.41
2019-02-22T10:05:53.334Z,98107.25
2019-02-22T10:07:00.635Z,98109.84
2019-02-22T10:08:11.267Z,98111.91
2019-02-22T10:09:18.611Z,98116.18
2019-02-22T10:10:25.914Z,98111.84
2019-02-22T10:11:33.246Z,98114.36
2019-02-22T10:12:40.654Z,98116.43
2019-02-22T10:13:48.168Z,98105.92
2019-02-22T10:14:55.522Z,98112.30
2019-02-22T10:16:02.845Z,98107.88
2019-02-22T10:17:10.168Z,98111.70
2019-02-22T10:18:17.488Z,98110.27
2019-02-22T10:19:24.846Z,98120.57
2019-02-22T10:20:32.151Z,98119.59
2019-02-22T10:21:39.491Z,98119.14
2019-02-22T10:22:46.802Z,98122.02
2019-02-22T10:23:54.123Z,98116.30
2019-02-22T10:25:01.439Z,98120.58
2019-02-22T10:26:09.160Z,98127.83
2019-02-22T10:27:16.539Z,98127.30
2019-02-22T10:28:23.858Z,98130.70
2019-02-22T10:29:31.207Z,98121.91
2019-02-22T10:30:38.519Z,98130.45
2019-02-22T10:31:46.204Z,98130.45
2019-02-22T10:32:53.529Z,98131.30
2019-02-22T10:34:01.812Z,98137.72
2019-02-22T10:35:09.265Z,98136.80
2019-02-22T10:36:16.584Z,98142.38
2019-02-22T10:37:23.910Z,98142.30
2019-02-22T10:38:35.552Z,98147.11
2019-02-22T10:39:41.206Z,98150.09
2019-02-22T10:40:48.542Z,98156.19
2019-02-22T10:41:55.881Z,98160.54
2019-02-22T10:43:03.217Z,98157.03
2019-02-22T10:44:17.855Z,98154.89
2019-02-22T10:45:19.576Z,98160.54
2019-02-22T10:46:26.905Z,98158.41
2019-02-22T10:47:34.243Z,98167.87
2019-02-22T10:48:41.642Z,98158.79
2019-02-22T10:49:49.242Z,98157.03
2019-02-22T10:50:59.278Z,98158.72
2019-02-22T10:52:05.964Z,98155.66
2019-02-22T10:53:13.290Z,98160.02
2019-02-22T10:54:21.703Z,98160.33
2019-02-22T10:55:29.104Z,98156.82
2019-02-22T10:56:39.060Z,98167.55
2019-02-22T10:57:45.439Z,98161.00
2019-02-22T10:58:52.801Z,98164.44
2019-02-22T11:00:00.427Z,98162.68
2019-02-22T11:01:08.210Z,98161.31
2019-02-22T11:02:15.494Z,98163.38
2019-02-22T11:03:22.850Z,98165.83
2019-02-22T11:04:30.173Z,98163.16
2019-02-22T11:05:37.503Z,98159.55
2019-02-22T11:06:44.880Z,98165.97
2019-02-22T11:07:52.214Z,98163.76
2019-02-22T11:08:59.528Z,98171.48
2019-02-22T11:10:08.930Z,98172.25
2019-02-22T11:11:17.644Z,98173.92
2019-02-22T11:12:25.288Z,98172.25
2019-02-22T11:13:32.620Z,98171.33
2019-02-22T11:14:39.919Z,98179.58
2019-02-22T11:15:47.324Z,98173.16
2019-02-22T11:16:54.658Z,98173.16
2019-02-22T11:18:02.033Z,98173.61
2019-02-22T11:19:09.634Z,98171.02
2019-02-22T11:20:16.947Z,98174.91
2019-02-22T11:21:24.291Z,98170.11
2019-02-22T11:22:31.623Z,98170.11
2019-02-22T11:23:38.981Z,98167.89
2019-02-22T11:24:46.294Z,98173.02
2019-02-22T11:25:57.351Z,98166.45
2019-02-22T11:27:04.653Z,98168.98
2019-02-22T11:28:12.015Z,98168.88
2019-02-22T11:29:19.327Z,98171.85
2019-02-22T11:30:26.654Z,98171.39
2019-02-22T11:31:33.979Z,98166.59
2019-02-22T11:32:41.324Z,98171.70
2019-02-22T11:33:48.697Z,98175.45
2019-02-22T11:34:56.331Z,98176.61
2019-02-22T11:36:03.694Z,98186.44
2019-02-22T11:37:10.994Z,98181.23
2019-02-22T11:38:19.491Z,98185.06
2019-02-22T11:39:26.839Z,98186.82
2019-02-22T11:40:34.157Z,98182.08
2019-02-22T11:41:41.457Z,98182.54
2019-02-22T11:42:48.786Z,98186.82
2019-02-22T11:43:56.129Z,98182.08
2019-02-22T11:45:03.464Z,98181.23
2019-02-22T11:46:10.949Z,98178.64
2019-02-22T11:47:18.278Z,98185.52
2019-02-22T11:48:25.665Z,98186.89
2019-02-22T11:49:32.997Z,98189.03
2019-02-22T11:50:40.509Z,98191.55
2019-02-22T11:51:48.071Z,98191.48
2019-02-22T11:52:55.396Z,98185.38
2019-02-22T11:54:02.749Z,98191.34
2019-02-22T11:55:11.723Z,98188.21
2019-02-22T11:56:19.070Z,98189.89
2019-02-22T11:57:26.384Z,98191.58
2019-02-22T11:58:34.165Z,98192.23
2019-02-22T11:59:41.510Z,98188.66
2019-02-22T12:00:48.829Z,98185.14
2019-02-22T12:01:56.160Z,98184.16
2019-02-22T12:03:15.866Z,98183.23
2019-02-22T12:04:12.547Z,98184.84
2019-02-22T12:05:19.878Z,98180.95
2019-02-22T12:06:27.329Z,98175.75
2019-02-22T12:07:34.698Z,98178.73
2019-02-22T12:08:42.120Z,98177.79
2019-02-22T12:09:51.710Z,98177.33
2019-02-22T12:10:59.230Z,98176.88
2019-02-22T12:12:06.629Z,98178.09
2019-02-22T12:13:14.004Z,98179.40
2019-02-22T12:14:21.518Z,98180.31
2019-02-22T12:15:33.316Z,98182.91
2019-02-22T12:16:40.718Z,98182.84
2019-02-22T12:17:48.161Z,98190.17
2019-02-22T12:18:55.607Z,98188.80
2019-02-22T12:20:03.019Z,98191.25
2019-02-22T12:21:10.384Z,98186.36
2019-02-22T12:22:17.758Z,98186.74
2019-02-22T12:23:25.126Z,98186.56
2019-02-22T12:24:32.557Z,98186.87
2019-02-22T12:25:39.933Z,98193.22
2019-02-22T12:26:47.311Z,98191.00
2019-02-22T12:27:54.671Z,98194.44
2019-02-22T12:29:02.036Z,98193.52
2019-02-22T12:30:12.418Z,98194.36
2019-02-22T12:31:19.817Z,98196.39
2019-02-22T12:32:27.163Z,98204.58
2019-02-22T12:33:34.509Z,98202.36
2019-02-22T12:34:41.858Z,98203.61
2019-02-22T12:35:49.238Z,98205.22
2019-02-22T12:36:56.583Z,98202.63
2019-02-22T12:38:03.988Z,98203.46
2019-02-22T12:39:11.711Z,98196.58
2019-02-22T12:40:19.922Z,98204.38
2019-02-22T12:41:27.454Z,98196.20
2019-02-22T12:42:36.572Z,98200.55
2019-02-22T12:43:45.773Z,98199.33
2019-02-22T12:45:02.501Z,98198.92
2019-02-22T12:46:02.334Z,98198.92
2019-02-22T12:47:09.703Z,98204.19
2019-02-22T12:48:17.029Z,98208.47
2019-02-22T12:49:24.386Z,98205.41
2019-02-22T12:50:31.834Z,98216.23
2019-02-22T12:51:42.518Z,98218.83
2019-02-22T12:52:49.904Z,98213.62
2019-02-22T12:53:57.264Z,98216.65
2019-02-22T12:55:04.897Z,98218.37
2019-02-22T12:56:12.292Z,98217.91
2019-02-22T12:57:19.662Z,98217.06
2019-02-22T12:58:27.051Z,98210.03
2019-02-22T12:59:34.394Z,98214.24
2019-02-22T13:00:41.751Z,98215.01
2019-02-22T13:01:49.105Z,98212.69
2019-02-22T13:03:02.093Z,98210.01
2019-02-22T13:04:05.705Z,98216.43
2019-02-22T13:05:17.514Z,98217.20
2019-02-22T13:06:24.867Z,98217.50
2019-02-22T13:07:36.700Z,98213.14
2019-02-22T13:08:44.086Z,98217.27
2019-02-22T13:09:51.472Z,98216.70
2019-02-22T13:10:58.849Z,98221.67
2019-02-22T13:12:13.694Z,98220.14
2019-02-22T13:13:15.295Z,98224.70
2019-02-22T13:14:22.664Z,98227.91
2019-02-22T13:15:29.990Z,98223.31